Voyager Of The Seas — C6SE5 — position and weather

sailwx.info

Track history (hours):
 
Tides and Currents Weather Stations Pressure Air Temp Water Temp Dewpoint Dewpoint Depression Visibility Wind Speed Wind Dir Waves Ship Positions

Voyager Of The Seas

Operator: Royal Caribbean Cruises Ltd

Last reported at 2018-Jun-19 18:00 UTC. Time now 2018-Jun-20 00:06 UTC.
Position N 02°30' E 101°30'.

Type: Passenger vessel. MMSI: 311317000.

Wind from 140 at 15 knots

Barometer 1011.0 mb
Air temperature 28.0 ° C
Visibility: greater than 5.4 NM

Date/timePositionNaut miles runAvg speedWind from/ knotsBaromVisibWave heightAir tempDewpointWater temp
2018-Jun-19 18:00N 02°30' E 101°30'12218.9 140 / 151011.0 5.4 28.0
2018-Jun-19 11:32N 01°25' E 103°13'220.8
2018-Jun-19 11:25N 01°23' E 103°15'818.7
2018-Jun-19 10:59N 01°17' E 103°21'817.5
2018-Jun-19 10:30N 01°14' E 103°28'917.6
2018-Jun-19 10:00N 01°12' E 103°37'917.1
2018-Jun-19 09:30N 01°09' E 103°45'916.8
2018-Jun-19 08:59N 01°13' E 103°53'3 6.1
2018-Jun-19 08:30N 01°16' E 103°51'0 0.3
2018-Jun-19 07:51N 01°16' E 103°52'0 0.0
2018-Jun-19 07:13N 01°16' E 103°52'0 0.0
2018-Jun-19 06:51N 01°16' E 103°52'0 0.0
2018-Jun-19 06:27N 01°16' E 103°52'0 0.0
2018-Jun-19 05:51N 01°16' E 103°52'0 0.0
2018-Jun-19 04:22N 01°16' E 103°52'0 0.0
2018-Jun-19 03:55N 01°16' E 103°52'0 0.0
2018-Jun-19 02:57N 01°16' E 103°52'0 0.0
2018-Jun-19 02:30N 01°16' E 103°52'0 0.0
2018-Jun-19 01:57N 01°16' E 103°52'0 0.0
2018-Jun-19 01:21N 01°16' E 103°52'0 0.0
2018-Jun-19 01:00N 01°16' E 103°52'0 0.0
2018-Jun-19 00:22N 01°16' E 103°52'0 0.0
2018-Jun-18 23:52N 01°16' E 103°52'0 0.0
2018-Jun-18 23:25N 01°16' E 103°52'2 4.3
2018-Jun-18 23:00N 01°14' E 103°52'4 7.2
2018-Jun-18 22:30N 01°11' E 103°51'713.4
2018-Jun-18 22:00N 01°07' E 103°45'613.0
2018-Jun-18 21:30N 01°03' E 103°40'611.9
2018-Jun-18 21:00N 01°05' E 103°35'712.9
2018-Jun-18 20:30N 01°08' E 103°29'713.0
2018-Jun-18 19:59N 01°13' E 103°24'812.5
2018-Jun-18 19:23N 01°18' E 103°18'45610.3
2018-Jun-16 23:00N 07°12' E 098°30'44712.7 270 / 271008.0 5.4 30.030.0
2018-Jun-15 11:41N 01°26' E 103°14'420.7
2018-Jun-15 11:29N 01°23' E 103°17'1122.2
2018-Jun-15 10:59N 01°15' E 103°24'1020.9
2018-Jun-15 10:30N 01°12' E 103°34'1121.1
2018-Jun-15 10:00N 01°08' E 103°44'918.7
2018-Jun-15 09:30N 01°13' E 103°52'3 6.1
2018-Jun-15 09:00N 01°15' E 103°51'1 0.9
2018-Jun-15 08:23N 01°16' E 103°52'0 0.0
2018-Jun-15 07:59N 01°16' E 103°52'0 0.0
2018-Jun-15 07:23N 01°16' E 103°52'0 0.0
2018-Jun-15 06:59N 01°16' E 103°52'0 0.0
2018-Jun-15 06:22N 01°16' E 103°52'0 0.0
2018-Jun-15 05:59N 01°16' E 103°52'0 0.0
2018-Jun-15 05:29N 01°16' E 103°52'0 0.0
2018-Jun-15 04:34N 01°16' E 103°52'0 0.0
2018-Jun-15 04:28N 01°16' E 103°52'0 0.0
2018-Jun-15 03:59N 01°16' E 103°52'0 0.0
2018-Jun-15 03:28N 01°16' E 103°52'0 0.0
2018-Jun-15 02:59N 01°16' E 103°52'0 0.0
2018-Jun-15 02:26N 01°16' E 103°52'0 0.0
2018-Jun-15 01:59N 01°16' E 103°52'0 0.0
2018-Jun-15 01:22N 01°16' E 103°52'0 0.0
2018-Jun-15 00:59N 01°16' E 103°52'0 0.0
2018-Jun-15 00:22N 01°16' E 103°52'0 0.0
2018-Jun-14 23:59N 01°16' E 103°52'0 0.0
2018-Jun-14 23:26N 01°16' E 103°52'2 5.2
2018-Jun-14 23:00N 01°14' E 103°53'3 6.6
2018-Jun-14 22:30N 01°11' E 103°51'612.3
2018-Jun-14 22:00N 01°08' E 103°45'816.5
2018-Jun-14 21:30N 01°03' E 103°39'713.7
2018-Jun-14 21:00N 01°06' E 103°33'714.2
2018-Jun-14 20:30N 01°10' E 103°27'814.1
2018-Jun-14 19:57N 01°14' E 103°20'613.8
2018-Jun-14 19:30N 01°18' E 103°16'  
2018-Jun-11 11:28N 01°28' E 103°11'1019.6
2018-Jun-11 10:58N 01°21' E 103°18'1020.2
2018-Jun-11 10:30N 01°14' E 103°24'1121.1
2018-Jun-11 10:00N 01°12' E 103°35'1019.9
2018-Jun-11 09:31N 01°08' E 103°44'1018.6
2018-Jun-11 08:59N 01°13' E 103°52'3 6.7
2018-Jun-11 08:30N 01°16' E 103°52'0 0.1
2018-Jun-11 07:46N 01°16' E 103°52'0 0.0
2018-Jun-11 07:28N 01°16' E 103°52'0 0.0
2018-Jun-11 06:58N 01°16' E 103°52'0 0.0
2018-Jun-11 06:25N 01°16' E 103°52'0 0.0
2018-Jun-11 05:46N 01°16' E 103°52'0 0.0
2018-Jun-11 05:27N 01°16' E 103°52'0 0.0
2018-Jun-11 04:59N 01°16' E 103°52'0 0.0
2018-Jun-11 04:28N 01°16' E 103°52'0 0.0
2018-Jun-11 03:58N 01°16' E 103°52'0 0.0
2018-Jun-11 03:30N 01°16' E 103°52'0 0.0
2018-Jun-11 02:57N 01°16' E 103°52'0 0.0
2018-Jun-11 02:28N 01°16' E 103°52'0 0.0
2018-Jun-11 01:56N 01°16' E 103°52'0 0.0
2018-Jun-11 01:28N 01°16' E 103°52'0 0.0
2018-Jun-11 01:00N 01°16' E 103°52'0 0.0
2018-Jun-11 00:30N 01°16' E 103°52'0 0.0
2018-Jun-10 23:59N 01°16' E 103°52'0 0.6
2018-Jun-10 23:30N 01°16' E 103°52'4 7.3
2018-Jun-10 23:00N 01°13' E 103°54'3 6.4
2018-Jun-10 22:30N 01°11' E 103°51'5 9.0
2018-Jun-10 22:00N 01°09' E 103°47'510.0
2018-Jun-10 21:30N 01°05' E 103°44'5 9.3
2018-Jun-10 21:00N 01°03' E 103°40'5 9.7
2018-Jun-10 20:30N 01°05' E 103°35'5 9.6
2018-Jun-10 20:00N 01°07' E 103°31'4 8.4
2018-Jun-10 19:30N 01°09' E 103°27'4 8.3
2018-Jun-10 18:59N 01°12' E 103°24'4 8.3
2018-Jun-10 18:30N 01°14' E 103°21'4 8.6
2018-Jun-10 18:00N 01°17' E 103°17'5 9.1
2018-Jun-10 17:30N 01°20' E 103°14'5 9.4
2018-Jun-10 16:59N 01°23' E 103°10'  
Track history (hours):
 
Tides and Currents Weather Stations Pressure Air Temp Water Temp Dewpoint Dewpoint Depression Visibility Wind Speed Wind Dir Waves Ship Positions

Voyager Of The Seas

Operator: Royal Caribbean Cruises Ltd

Last reported at 2018-Jun-19 18:00 UTC. Time now 2018-Jun-20 00:06 UTC.
Position N 02°30' E 101°30'.

Type: Passenger vessel. MMSI: 311317000.

Wind from 140 at 15 knots

Barometer 1011.0 mb
Air temperature 28.0 ° C
Visibility: greater than 5.4 NM

Date/timePositionNaut miles runAvg speedWind from/ knotsBaromVisibWave heightAir tempDewpointWater temp
2018-Jun-19 18:00N 02°30' E 101°30'12218.9 140 / 151011.0 5.4 28.0
2018-Jun-19 11:32N 01°25' E 103°13'220.8
2018-Jun-19 11:25N 01°23' E 103°15'818.7
2018-Jun-19 10:59N 01°17' E 103°21'817.5
2018-Jun-19 10:30N 01°14' E 103°28'917.6
2018-Jun-19 10:00N 01°12' E 103°37'917.1
2018-Jun-19 09:30N 01°09' E 103°45'916.8
2018-Jun-19 08:59N 01°13' E 103°53'3 6.1
2018-Jun-19 08:30N 01°16' E 103°51'0 0.3
2018-Jun-19 07:51N 01°16' E 103°52'0 0.0
2018-Jun-19 07:13N 01°16' E 103°52'0 0.0
2018-Jun-19 06:51N 01°16' E 103°52'0 0.0
2018-Jun-19 06:27N 01°16' E 103°52'0 0.0
2018-Jun-19 05:51N 01°16' E 103°52'0 0.0
2018-Jun-19 04:22N 01°16' E 103°52'0 0.0
2018-Jun-19 03:55N 01°16' E 103°52'0 0.0
2018-Jun-19 02:57N 01°16' E 103°52'0 0.0
2018-Jun-19 02:30N 01°16' E 103°52'0 0.0
2018-Jun-19 01:57N 01°16' E 103°52'0 0.0
2018-Jun-19 01:21N 01°16' E 103°52'0 0.0
2018-Jun-19 01:00N 01°16' E 103°52'0 0.0
2018-Jun-19 00:22N 01°16' E 103°52'0 0.0
2018-Jun-18 23:52N 01°16' E 103°52'0 0.0
2018-Jun-18 23:25N 01°16' E 103°52'2 4.3
2018-Jun-18 23:00N 01°14' E 103°52'4 7.2
2018-Jun-18 22:30N 01°11' E 103°51'713.4
2018-Jun-18 22:00N 01°07' E 103°45'613.0
2018-Jun-18 21:30N 01°03' E 103°40'611.9
2018-Jun-18 21:00N 01°05' E 103°35'712.9
2018-Jun-18 20:30N 01°08' E 103°29'713.0
2018-Jun-18 19:59N 01°13' E 103°24'812.5
2018-Jun-18 19:23N 01°18' E 103°18'45610.3
2018-Jun-16 23:00N 07°12' E 098°30'44712.7 270 / 271008.0 5.4 30.030.0
2018-Jun-15 11:41N 01°26' E 103°14'420.7
2018-Jun-15 11:29N 01°23' E 103°17'1122.2
2018-Jun-15 10:59N 01°15' E 103°24'1020.9
2018-Jun-15 10:30N 01°12' E 103°34'1121.1
2018-Jun-15 10:00N 01°08' E 103°44'918.7
2018-Jun-15 09:30N 01°13' E 103°52'3 6.1
2018-Jun-15 09:00N 01°15' E 103°51'1 0.9
2018-Jun-15 08:23N 01°16' E 103°52'0 0.0
2018-Jun-15 07:59N 01°16' E 103°52'0 0.0
2018-Jun-15 07:23N 01°16' E 103°52'0 0.0
2018-Jun-15 06:59N 01°16' E 103°52'0 0.0
2018-Jun-15 06:22N 01°16' E 103°52'0 0.0
2018-Jun-15 05:59N 01°16' E 103°52'0 0.0
2018-Jun-15 05:29N 01°16' E 103°52'0 0.0
2018-Jun-15 04:34N 01°16' E 103°52'0 0.0
2018-Jun-15 04:28N 01°16' E 103°52'0 0.0
2018-Jun-15 03:59N 01°16' E 103°52'0 0.0
2018-Jun-15 03:28N 01°16' E 103°52'0 0.0
2018-Jun-15 02:59N 01°16' E 103°52'0 0.0
2018-Jun-15 02:26N 01°16' E 103°52'0 0.0
2018-Jun-15 01:59N 01°16' E 103°52'0 0.0
2018-Jun-15 01:22N 01°16' E 103°52'0 0.0
2018-Jun-15 00:59N 01°16' E 103°52'0 0.0
2018-Jun-15 00:22N 01°16' E 103°52'0 0.0
2018-Jun-14 23:59N 01°16' E 103°52'0 0.0
2018-Jun-14 23:26N 01°16' E 103°52'2 5.2
2018-Jun-14 23:00N 01°14' E 103°53'3 6.6
2018-Jun-14 22:30N 01°11' E 103°51'612.3
2018-Jun-14 22:00N 01°08' E 103°45'816.5
2018-Jun-14 21:30N 01°03' E 103°39'713.7
2018-Jun-14 21:00N 01°06' E 103°33'714.2
2018-Jun-14 20:30N 01°10' E 103°27'814.1
2018-Jun-14 19:57N 01°14' E 103°20'613.8
2018-Jun-14 19:30N 01°18' E 103°16'  
2018-Jun-11 11:28N 01°28' E 103°11'1019.6
2018-Jun-11 10:58N 01°21' E 103°18'1020.2
2018-Jun-11 10:30N 01°14' E 103°24'1121.1
2018-Jun-11 10:00N 01°12' E 103°35'1019.9
2018-Jun-11 09:31N 01°08' E 103°44'1018.6
2018-Jun-11 08:59N 01°13' E 103°52'3 6.7
2018-Jun-11 08:30N 01°16' E 103°52'0 0.1
2018-Jun-11 07:46N 01°16' E 103°52'0 0.0
2018-Jun-11 07:28N 01°16' E 103°52'0 0.0
2018-Jun-11 06:58N 01°16' E 103°52'0 0.0
2018-Jun-11 06:25N 01°16' E 103°52'0 0.0
2018-Jun-11 05:46N 01°16' E 103°52'0 0.0
2018-Jun-11 05:27N 01°16' E 103°52'0 0.0
2018-Jun-11 04:59N 01°16' E 103°52'0 0.0
2018-Jun-11 04:28N 01°16' E 103°52'0 0.0
2018-Jun-11 03:58N 01°16' E 103°52'0 0.0
2018-Jun-11 03:30N 01°16' E 103°52'0 0.0
2018-Jun-11 02:57N 01°16' E 103°52'0 0.0
2018-Jun-11 02:28N 01°16' E 103°52'0 0.0
2018-Jun-11 01:56N 01°16' E 103°52'0 0.0
2018-Jun-11 01:28N 01°16' E 103°52'0 0.0
2018-Jun-11 01:00N 01°16' E 103°52'0 0.0
2018-Jun-11 00:30N 01°16' E 103°52'0 0.0
2018-Jun-10 23:59N 01°16' E 103°52'0 0.6
2018-Jun-10 23:30N 01°16' E 103°52'4 7.3
2018-Jun-10 23:00N 01°13' E 103°54'3 6.4
2018-Jun-10 22:30N 01°11' E 103°51'5 9.0
2018-Jun-10 22:00N 01°09' E 103°47'510.0
2018-Jun-10 21:30N 01°05' E 103°44'5 9.3
2018-Jun-10 21:00N 01°03' E 103°40'5 9.7
2018-Jun-10 20:30N 01°05' E 103°35'5 9.6
2018-Jun-10 20:00N 01°07' E 103°31'4 8.4
2018-Jun-10 19:30N 01°09' E 103°27'4 8.3
2018-Jun-10 18:59N 01°12' E 103°24'4 8.3
2018-Jun-10 18:30N 01°14' E 103°21'4 8.6
2018-Jun-10 18:00N 01°17' E 103°17'5 9.1
2018-Jun-10 17:30N 01°20' E 103°14'5 9.4
2018-Jun-10 16:59N 01°23' E 103°10'  

Dump ship's entire track history